sensor_id;sensor_type;location;lat;lon;timestamp;P1;durP1;ratioP1;P2;durP2;ratioP2
13897;SDS011;7019;50.766;4.474;2022-08-19T00:01:18;12.07;;;10.87;;
13897;SDS011;7019;50.766;4.474;2022-08-19T00:03:47;13.13;;;11.47;;
13897;SDS011;7019;50.766;4.474;2022-08-19T00:06:15;11.37;;;10.43;;
13897;SDS011;7019;50.766;4.474;2022-08-19T00:08:42;12.13;;;10.97;;
13897;SDS011;7019;50.766;4.474;2022-08-19T00:11:10;10.27;;;9.47;;
13897;SDS011;7019;50.766;4.474;2022-08-19T00:13:37;11.30;;;10.20;;
13897;SDS011;7019;50.766;4.474;2022-08-19T00:16:05;12.13;;;10.93;;
13897;SDS011;7019;50.766;4.474;2022-08-19T00:18:33;12.13;;;11.03;;
13897;SDS011;7019;50.766;4.474;2022-08-19T00:21:02;11.13;;;10.13;;
13897;SDS011;7019;50.766;4.474;2022-08-19T00:23:32;11.23;;;10.27;;
13897;SDS011;7019;50.766;4.474;2022-08-19T00:26:01;11.13;;;10.10;;
13897;SDS011;7019;50.766;4.474;2022-08-19T00:28:29;11.43;;;10.37;;
13897;SDS011;7019;50.766;4.474;2022-08-19T00:30:56;11.73;;;10.70;;
13897;SDS011;7019;50.766;4.474;2022-08-19T00:33:23;11.97;;;10.90;;
13897;SDS011;7019;50.766;4.474;2022-08-19T00:35:50;13.43;;;12.23;;
13897;SDS011;7019;50.766;4.474;2022-08-19T00:38:19;12.27;;;11.27;;
13897;SDS011;7019;50.766;4.474;2022-08-19T00:40:47;11.50;;;10.50;;
13897;SDS011;7019;50.766;4.474;2022-08-19T00:43:18;11.53;;;10.53;;
13897;SDS011;7019;50.766;4.474;2022-08-19T00:45:47;12.57;;;11.37;;
13897;SDS011;7019;50.766;4.474;2022-08-19T00:48:15;13.80;;;12.53;;
13897;SDS011;7019;50.766;4.474;2022-08-19T00:50:42;11.43;;;10.43;;
13897;SDS011;7019;50.766;4.474;2022-08-19T00:53:11;12.87;;;11.77;;
13897;SDS011;7019;50.766;4.474;2022-08-19T00:55:42;12.40;;;11.33;;
13897;SDS011;7019;50.766;4.474;2022-08-19T00:58:14;13.60;;;12.40;;
13897;SDS011;7019;50.766;4.474;2022-08-19T01:00:44;13.87;;;12.40;;
13897;SDS011;7019;50.766;4.474;2022-08-19T01:03:13;14.60;;;13.30;;
13897;SDS011;7019;50.766;4.474;2022-08-19T01:05:45;16.20;;;14.30;;
13897;SDS011;7019;50.766;4.474;2022-08-19T01:08:14;15.70;;;14.13;;
13897;SDS011;7019;50.766;4.474;2022-08-19T01:10:45;16.10;;;14.33;;
13897;SDS011;7019;50.766;4.474;2022-08-19T01:13:17;18.20;;;15.90;;
13897;SDS011;7019;50.766;4.474;2022-08-19T01:15:47;19.77;;;17.77;;
13897;SDS011;7019;50.766;4.474;2022-08-19T01:18:17;18.30;;;14.63;;
13897;SDS011;7019;50.766;4.474;2022-08-19T01:20:46;17.37;;;15.53;;
13897;SDS011;7019;50.766;4.474;2022-08-19T01:23:15;19.27;;;17.10;;
13897;SDS011;7019;50.766;4.474;2022-08-19T01:25:44;20.67;;;16.90;;
13897;SDS011;7019;50.766;4.474;2022-08-19T01:28:17;21.53;;;17.50;;
13897;SDS011;7019;50.766;4.474;2022-08-19T01:30:46;20.93;;;17.63;;
13897;SDS011;7019;50.766;4.474;2022-08-19T01:33:14;19.93;;;17.87;;
13897;SDS011;7019;50.766;4.474;2022-08-19T01:35:42;19.40;;;17.17;;
13897;SDS011;7019;50.766;4.474;2022-08-19T01:38:10;20.37;;;16.57;;
13897;SDS011;7019;50.766;4.474;2022-08-19T01:40:48;17.90;;;16.10;;
13897;SDS011;7019;50.766;4.474;2022-08-19T01:43:15;21.07;;;18.03;;
13897;SDS011;7019;50.766;4.474;2022-08-19T01:45:44;18.90;;;16.80;;
13897;SDS011;7019;50.766;4.474;2022-08-19T01:48:12;18.70;;;16.80;;
13897;SDS011;7019;50.766;4.474;2022-08-19T01:50:40;24.23;;;18.77;;
13897;SDS011;7019;50.766;4.474;2022-08-19T01:53:08;21.40;;;19.20;;
13897;SDS011;7019;50.766;4.474;2022-08-19T01:55:40;21.50;;;19.17;;
13897;SDS011;7019;50.766;4.474;2022-08-19T01:58:09;21.17;;;18.70;;
13897;SDS011;7019;50.766;4.474;2022-08-19T02:00:40;23.30;;;20.07;;
13897;SDS011;7019;50.766;4.474;2022-08-19T02:03:08;22.00;;;19.70;;
13897;SDS011;7019;50.766;4.474;2022-08-19T02:05:36;22.23;;;19.23;;
13897;SDS011;7019;50.766;4.474;2022-08-19T02:08:04;22.20;;;19.90;;
13897;SDS011;7019;50.766;4.474;2022-08-19T02:10:31;21.07;;;18.93;;
13897;SDS011;7019;50.766;4.474;2022-08-19T02:13:00;24.27;;;21.00;;
13897;SDS011;7019;50.766;4.474;2022-08-19T02:15:28;22.47;;;19.97;;
13897;SDS011;7019;50.766;4.474;2022-08-19T02:17:55;22.23;;;19.83;;
13897;SDS011;7019;50.766;4.474;2022-08-19T02:20:22;28.37;;;24.47;;
13897;SDS011;7019;50.766;4.474;2022-08-19T02:22:49;29.57;;;22.60;;
13897;SDS011;7019;50.766;4.474;2022-08-19T02:25:17;30.10;;;26.80;;
13897;SDS011;7019;50.766;4.474;2022-08-19T02:27:44;25.80;;;22.90;;
13897;SDS011;7019;50.766;4.474;2022-08-19T02:30:14;28.23;;;23.13;;
13897;SDS011;7019;50.766;4.474;2022-08-19T02:32:42;25.73;;;22.93;;
13897;SDS011;7019;50.766;4.474;2022-08-19T02:35:10;26.83;;;22.80;;
13897;SDS011;7019;50.766;4.474;2022-08-19T02:37:38;26.37;;;22.80;;
13897;SDS011;7019;50.766;4.474;2022-08-19T02:40:23;24.23;;;21.63;;
13897;SDS011;7019;50.766;4.474;2022-08-19T02:42:50;25.70;;;22.80;;
13897;SDS011;7019;50.766;4.474;2022-08-19T02:45:19;29.20;;;24.97;;
13897;SDS011;7019;50.766;4.474;2022-08-19T02:47:47;27.17;;;24.27;;
13897;SDS011;7019;50.766;4.474;2022-08-19T02:50:14;27.70;;;23.90;;
13897;SDS011;7019;50.766;4.474;2022-08-19T02:52:41;27.33;;;22.90;;
13897;SDS011;7019;50.766;4.474;2022-08-19T02:55:09;30.43;;;24.87;;
13897;SDS011;7019;50.766;4.474;2022-08-19T02:57:36;30.47;;;23.50;;
13897;SDS011;7019;50.766;4.474;2022-08-19T03:00:04;26.70;;;23.43;;
13897;SDS011;7019;50.766;4.474;2022-08-19T03:02:33;26.83;;;23.70;;
13897;SDS011;7019;50.766;4.474;2022-08-19T03:05:02;29.27;;;22.83;;
13897;SDS011;7019;50.766;4.474;2022-08-19T03:07:29;31.13;;;25.37;;
13897;SDS011;7019;50.766;4.474;2022-08-19T03:09:56;25.63;;;22.87;;
13897;SDS011;7019;50.766;4.474;2022-08-19T03:12:23;28.13;;;23.20;;
13897;SDS011;7019;50.766;4.474;2022-08-19T03:14:51;26.53;;;23.30;;
13897;SDS011;7019;50.766;4.474;2022-08-19T03:17:18;26.33;;;22.37;;
13897;SDS011;7019;50.766;4.474;2022-08-19T03:19:47;29.90;;;23.30;;
13897;SDS011;7019;50.766;4.474;2022-08-19T03:22:14;30.13;;;24.23;;
13897;SDS011;7019;50.766;4.474;2022-08-19T03:24:41;24.40;;;21.73;;
13897;SDS011;7019;50.766;4.474;2022-08-19T03:27:09;24.33;;;21.03;;
13897;SDS011;7019;50.766;4.474;2022-08-19T03:29:36;23.93;;;21.13;;
13897;SDS011;7019;50.766;4.474;2022-08-19T03:32:04;24.87;;;21.57;;
13897;SDS011;7019;50.766;4.474;2022-08-19T03:34:33;27.97;;;22.70;;
13897;SDS011;7019;50.766;4.474;2022-08-19T03:37:06;36.87;;;25.97;;
13897;SDS011;7019;50.766;4.474;2022-08-19T03:39:35;29.43;;;22.10;;
13897;SDS011;7019;50.766;4.474;2022-08-19T03:42:04;33.67;;;26.67;;
13897;SDS011;7019;50.766;4.474;2022-08-19T03:44:31;32.20;;;25.30;;
13897;SDS011;7019;50.766;4.474;2022-08-19T03:46:59;36.47;;;26.90;;
13897;SDS011;7019;50.766;4.474;2022-08-19T03:49:27;33.73;;;26.53;;
13897;SDS011;7019;50.766;4.474;2022-08-19T03:51:56;28.60;;;21.80;;
13897;SDS011;7019;50.766;4.474;2022-08-19T03:54:27;28.37;;;21.87;;
13897;SDS011;7019;50.766;4.474;2022-08-19T03:56:55;33.03;;;26.33;;
13897;SDS011;7019;50.766;4.474;2022-08-19T03:59:23;30.23;;;21.60;;
13897;SDS011;7019;50.766;4.474;2022-08-19T04:01:56;31.70;;;21.70;;
13897;SDS011;7019;50.766;4.474;2022-08-19T04:04:25;39.53;;;27.43;;
13897;SDS011;7019;50.766;4.474;2022-08-19T04:06:54;31.53;;;25.23;;
13897;SDS011;7019;50.766;4.474;2022-08-19T04:09:21;34.53;;;25.40;;
13897;SDS011;7019;50.766;4.474;2022-08-19T04:11:51;37.93;;;26.93;;
13897;SDS011;7019;50.766;4.474;2022-08-19T04:14:20;37.40;;;27.00;;
13897;SDS011;7019;50.766;4.474;2022-08-19T04:16:49;44.20;;;27.17;;
13897;SDS011;7019;50.766;4.474;2022-08-19T04:19:18;42.43;;;29.33;;
13897;SDS011;7019;50.766;4.474;2022-08-19T04:21:46;34.30;;;25.07;;
13897;SDS011;7019;50.766;4.474;2022-08-19T04:24:16;48.43;;;30.53;;
13897;SDS011;7019;50.766;4.474;2022-08-19T04:26:44;40.30;;;29.17;;
13897;SDS011;7019;50.766;4.474;2022-08-19T04:29:14;44.53;;;29.80;;
13897;SDS011;7019;50.766;4.474;2022-08-19T04:31:44;45.60;;;30.87;;
13897;SDS011;7019;50.766;4.474;2022-08-19T04:34:12;48.87;;;32.27;;
13897;SDS011;7019;50.766;4.474;2022-08-19T04:36:42;47.40;;;32.80;;
13897;SDS011;7019;50.766;4.474;2022-08-19T04:39:12;48.03;;;32.80;;
13897;SDS011;7019;50.766;4.474;2022-08-19T04:41:41;46.47;;;30.83;;
13897;SDS011;7019;50.766;4.474;2022-08-19T04:44:29;49.73;;;32.30;;
13897;SDS011;7019;50.766;4.474;2022-08-19T04:46:56;48.70;;;32.27;;
13897;SDS011;7019;50.766;4.474;2022-08-19T04:49:24;44.87;;;30.30;;
13897;SDS011;7019;50.766;4.474;2022-08-19T04:51:52;43.90;;;30.47;;
13897;SDS011;7019;50.766;4.474;2022-08-19T04:54:20;42.83;;;30.53;;
13897;SDS011;7019;50.766;4.474;2022-08-19T04:56:50;39.30;;;26.23;;
13897;SDS011;7019;50.766;4.474;2022-08-19T04:59:18;36.13;;;24.87;;
13897;SDS011;7019;50.766;4.474;2022-08-19T05:01:47;43.10;;;29.60;;
13897;SDS011;7019;50.766;4.474;2022-08-19T05:04:15;38.13;;;25.90;;
13897;SDS011;7019;50.766;4.474;2022-08-19T05:06:44;38.00;;;24.87;;
13897;SDS011;7019;50.766;4.474;2022-08-19T05:09:12;35.97;;;25.50;;
13897;SDS011;7019;50.766;4.474;2022-08-19T05:11:42;39.70;;;27.63;;
13897;SDS011;7019;50.766;4.474;2022-08-19T05:14:10;37.67;;;26.70;;
13897;SDS011;7019;50.766;4.474;2022-08-19T05:16:38;40.63;;;27.13;;
13897;SDS011;7019;50.766;4.474;2022-08-19T05:19:08;38.30;;;26.80;;
13897;SDS011;7019;50.766;4.474;2022-08-19T05:21:53;40.87;;;27.73;;
13897;SDS011;7019;50.766;4.474;2022-08-19T05:24:38;44.83;;;28.47;;
13897;SDS011;7019;50.766;4.474;2022-08-19T05:27:05;36.60;;;28.40;;
13897;SDS011;7019;50.766;4.474;2022-08-19T05:29:33;35.77;;;25.93;;
13897;SDS011;7019;50.766;4.474;2022-08-19T05:32:02;36.47;;;24.90;;
13897;SDS011;7019;50.766;4.474;2022-08-19T05:34:34;32.83;;;24.10;;
13897;SDS011;7019;50.766;4.474;2022-08-19T05:37:03;31.47;;;24.73;;
13897;SDS011;7019;50.766;4.474;2022-08-19T05:39:33;36.60;;;26.17;;
13897;SDS011;7019;50.766;4.474;2022-08-19T05:42:03;36.57;;;26.33;;
13897;SDS011;7019;50.766;4.474;2022-08-19T05:44:33;34.37;;;24.60;;
13897;SDS011;7019;50.766;4.474;2022-08-19T05:47:03;34.47;;;26.77;;
13897;SDS011;7019;50.766;4.474;2022-08-19T05:49:35;34.80;;;26.10;;
13897;SDS011;7019;50.766;4.474;2022-08-19T05:52:03;32.33;;;24.17;;
13897;SDS011;7019;50.766;4.474;2022-08-19T05:54:32;30.47;;;25.57;;
13897;SDS011;7019;50.766;4.474;2022-08-19T05:57:00;32.30;;;24.20;;
13897;SDS011;7019;50.766;4.474;2022-08-19T05:59:27;32.83;;;23.77;;
13897;SDS011;7019;50.766;4.474;2022-08-19T06:01:55;26.90;;;22.73;;
13897;SDS011;7019;50.766;4.474;2022-08-19T06:04:23;27.53;;;19.87;;
13897;SDS011;7019;50.766;4.474;2022-08-19T06:06:52;27.27;;;19.83;;
13897;SDS011;7019;50.766;4.474;2022-08-19T06:09:21;25.03;;;19.33;;
13897;SDS011;7019;50.766;4.474;2022-08-19T06:11:50;26.50;;;18.53;;
13897;SDS011;7019;50.766;4.474;2022-08-19T06:14:20;22.53;;;16.73;;
13897;SDS011;7019;50.766;4.474;2022-08-19T06:16:49;21.47;;;16.67;;
13897;SDS011;7019;50.766;4.474;2022-08-19T06:19:18;24.60;;;15.83;;
13897;SDS011;7019;50.766;4.474;2022-08-19T06:28:39;15.43;;;12.23;;
13897;SDS011;7019;50.766;4.474;2022-08-19T06:31:08;15.07;;;11.20;;
13897;SDS011;7019;50.766;4.474;2022-08-19T06:33:35;16.93;;;10.90;;
13897;SDS011;7019;50.766;4.474;2022-08-19T06:36:04;11.57;;;9.77;;
13897;SDS011;7019;50.766;4.474;2022-08-19T06:38:31;14.90;;;9.73;;
13897;SDS011;7019;50.766;4.474;2022-08-19T06:41:00;14.00;;;9.90;;
13897;SDS011;7019;50.766;4.474;2022-08-19T06:43:27;11.80;;;9.90;;
13897;SDS011;7019;50.766;4.474;2022-08-19T06:45:56;12.87;;;8.97;;
13897;SDS011;7019;50.766;4.474;2022-08-19T06:48:24;11.10;;;9.53;;
13897;SDS011;7019;50.766;4.474;2022-08-19T06:50:51;11.90;;;8.90;;
13897;SDS011;7019;50.766;4.474;2022-08-19T06:53:18;11.77;;;9.10;;
13897;SDS011;7019;50.766;4.474;2022-08-19T06:55:45;11.07;;;9.00;;
13897;SDS011;7019;50.766;4.474;2022-08-19T06:58:12;10.23;;;8.27;;
13897;SDS011;7019;50.766;4.474;2022-08-19T07:00:39;14.40;;;7.73;;
13897;SDS011;7019;50.766;4.474;2022-08-19T07:03:08;13.03;;;9.20;;
13897;SDS011;7019;50.766;4.474;2022-08-19T07:05:38;10.20;;;7.83;;
13897;SDS011;7019;50.766;4.474;2022-08-19T07:08:06;13.23;;;8.07;;
13897;SDS011;7019;50.766;4.474;2022-08-19T07:10:34;15.63;;;10.67;;
13897;SDS011;7019;50.766;4.474;2022-08-19T07:13:02;13.07;;;7.83;;
13897;SDS011;7019;50.766;4.474;2022-08-19T07:15:29;15.47;;;8.43;;
13897;SDS011;7019;50.766;4.474;2022-08-19T07:17:56;10.30;;;7.33;;
13897;SDS011;7019;50.766;4.474;2022-08-19T07:20:25;8.80;;;6.90;;
13897;SDS011;7019;50.766;4.474;2022-08-19T07:22:52;9.80;;;7.03;;
13897;SDS011;7019;50.766;4.474;2022-08-19T07:25:19;11.80;;;6.37;;
13897;SDS011;7019;50.766;4.474;2022-08-19T07:27:48;10.20;;;7.43;;
13897;SDS011;7019;50.766;4.474;2022-08-19T07:30:15;11.03;;;7.43;;
13897;SDS011;7019;50.766;4.474;2022-08-19T07:32:43;12.33;;;7.57;;
13897;SDS011;7019;50.766;4.474;2022-08-19T07:35:10;13.07;;;6.93;;
13897;SDS011;7019;50.766;4.474;2022-08-19T07:37:38;8.37;;;6.80;;
13897;SDS011;7019;50.766;4.474;2022-08-19T07:40:09;10.43;;;7.00;;
13897;SDS011;7019;50.766;4.474;2022-08-19T07:42:36;9.10;;;7.03;;
13897;SDS011;7019;50.766;4.474;2022-08-19T07:45:04;6.10;;;5.40;;
13897;SDS011;7019;50.766;4.474;2022-08-19T07:47:32;9.00;;;5.70;;
13897;SDS011;7019;50.766;4.474;2022-08-19T07:49:59;7.90;;;6.53;;
13897;SDS011;7019;50.766;4.474;2022-08-19T07:52:29;9.20;;;6.10;;
13897;SDS011;7019;50.766;4.474;2022-08-19T07:54:57;7.90;;;5.60;;
13897;SDS011;7019;50.766;4.474;2022-08-19T07:57:28;11.30;;;6.60;;
13897;SDS011;7019;50.766;4.474;2022-08-19T07:59:55;8.27;;;6.03;;
13897;SDS011;7019;50.766;4.474;2022-08-19T08:02:22;8.37;;;6.03;;
13897;SDS011;7019;50.766;4.474;2022-08-19T08:04:49;9.97;;;6.00;;
13897;SDS011;7019;50.766;4.474;2022-08-19T08:07:33;10.53;;;7.13;;
13897;SDS011;7019;50.766;4.474;2022-08-19T08:10:19;11.13;;;6.37;;
13897;SDS011;7019;50.766;4.474;2022-08-19T08:12:46;9.73;;;6.37;;
13897;SDS011;7019;50.766;4.474;2022-08-19T08:15:13;8.27;;;6.33;;
13897;SDS011;7019;50.766;4.474;2022-08-19T08:17:43;11.23;;;5.67;;
13897;SDS011;7019;50.766;4.474;2022-08-19T08:20:12;6.97;;;5.73;;
13897;SDS011;7019;50.766;4.474;2022-08-19T08:22:42;6.63;;;4.97;;
13897;SDS011;7019;50.766;4.474;2022-08-19T08:25:28;9.80;;;5.77;;
13897;SDS011;7019;50.766;4.474;2022-08-19T08:27:56;7.27;;;5.00;;
13897;SDS011;7019;50.766;4.474;2022-08-19T08:30:25;7.40;;;4.93;;
13897;SDS011;7019;50.766;4.474;2022-08-19T08:32:54;7.07;;;5.07;;
13897;SDS011;7019;50.766;4.474;2022-08-19T08:35:22;6.97;;;5.30;;
13897;SDS011;7019;50.766;4.474;2022-08-19T08:37:51;6.23;;;4.17;;
13897;SDS011;7019;50.766;4.474;2022-08-19T08:40:21;6.53;;;3.43;;
13897;SDS011;7019;50.766;4.474;2022-08-19T08:42:57;6.30;;;3.57;;
13897;SDS011;7019;50.766;4.474;2022-08-19T08:45:32;8.80;;;3.63;;
13897;SDS011;7019;50.766;4.474;2022-08-19T08:48:02;9.63;;;3.40;;
13897;SDS011;7019;50.766;4.474;2022-08-19T08:50:38;6.40;;;2.73;;
13897;SDS011;7019;50.766;4.474;2022-08-19T08:53:09;5.30;;;2.80;;
13897;SDS011;7019;50.766;4.474;2022-08-19T08:55:40;6.70;;;2.87;;
13897;SDS011;7019;50.766;4.474;2022-08-19T08:58:09;5.30;;;2.97;;
13897;SDS011;7019;50.766;4.474;2022-08-19T09:00:43;3.97;;;3.10;;
13897;SDS011;7019;50.766;4.474;2022-08-19T09:03:15;4.87;;;2.70;;
13897;SDS011;7019;50.766;4.474;2022-08-19T09:05:47;6.87;;;3.27;;
13897;SDS011;7019;50.766;4.474;2022-08-19T09:08:24;6.00;;;3.77;;
13897;SDS011;7019;50.766;4.474;2022-08-19T09:10:59;6.13;;;3.60;;
13897;SDS011;7019;50.766;4.474;2022-08-19T09:13:34;5.40;;;3.20;;
13897;SDS011;7019;50.766;4.474;2022-08-19T09:16:09;6.30;;;3.53;;
13897;SDS011;7019;50.766;4.474;2022-08-19T09:18:39;4.10;;;2.87;;
13897;SDS011;7019;50.766;4.474;2022-08-19T09:21:07;6.47;;;3.57;;
13897;SDS011;7019;50.766;4.474;2022-08-19T09:23:35;6.63;;;3.10;;
13897;SDS011;7019;50.766;4.474;2022-08-19T09:26:06;6.17;;;3.13;;
13897;SDS011;7019;50.766;4.474;2022-08-19T09:28:40;3.53;;;2.97;;
13897;SDS011;7019;50.766;4.474;2022-08-19T09:31:09;6.07;;;3.43;;
13897;SDS011;7019;50.766;4.474;2022-08-19T09:33:36;8.57;;;4.43;;
13897;SDS011;7019;50.766;4.474;2022-08-19T09:36:05;4.23;;;3.40;;
13897;SDS011;7019;50.766;4.474;2022-08-19T09:38:34;5.10;;;3.40;;
13897;SDS011;7019;50.766;4.474;2022-08-19T09:41:06;5.30;;;4.10;;
13897;SDS011;7019;50.766;4.474;2022-08-19T09:43:37;4.43;;;4.00;;
13897;SDS011;7019;50.766;4.474;2022-08-19T09:46:06;6.13;;;4.03;;
13897;SDS011;7019;50.766;4.474;2022-08-19T09:48:34;6.67;;;4.03;;
13897;SDS011;7019;50.766;4.474;2022-08-19T09:51:03;5.10;;;3.70;;
13897;SDS011;7019;50.766;4.474;2022-08-19T09:53:31;6.83;;;4.43;;
13897;SDS011;7019;50.766;4.474;2022-08-19T09:55:58;5.60;;;3.80;;
13897;SDS011;7019;50.766;4.474;2022-08-19T09:58:26;4.77;;;3.10;;
13897;SDS011;7019;50.766;4.474;2022-08-19T10:00:54;5.33;;;4.10;;
13897;SDS011;7019;50.766;4.474;2022-08-19T10:03:23;5.47;;;4.17;;
13897;SDS011;7019;50.766;4.474;2022-08-19T10:05:51;5.47;;;3.43;;
13897;SDS011;7019;50.766;4.474;2022-08-19T10:08:20;5.83;;;3.67;;
13897;SDS011;7019;50.766;4.474;2022-08-19T10:10:49;5.10;;;3.87;;
13897;SDS011;7019;50.766;4.474;2022-08-19T10:13:20;5.20;;;3.53;;
13897;SDS011;7019;50.766;4.474;2022-08-19T10:15:52;5.70;;;4.43;;
13897;SDS011;7019;50.766;4.474;2022-08-19T10:18:21;5.27;;;3.27;;
13897;SDS011;7019;50.766;4.474;2022-08-19T10:20:52;5.73;;;3.73;;
13897;SDS011;7019;50.766;4.474;2022-08-19T10:23:30;6.90;;;4.50;;
13897;SDS011;7019;50.766;4.474;2022-08-19T10:25:59;4.20;;;3.80;;
13897;SDS011;7019;50.766;4.474;2022-08-19T10:28:35;5.43;;;4.23;;
13897;SDS011;7019;50.766;4.474;2022-08-19T10:31:14;6.00;;;4.33;;
13897;SDS011;7019;50.766;4.474;2022-08-19T10:33:47;7.17;;;4.40;;
13897;SDS011;7019;50.766;4.474;2022-08-19T10:36:15;4.97;;;4.30;;
13897;SDS011;7019;50.766;4.474;2022-08-19T10:38:45;6.43;;;3.80;;
13897;SDS011;7019;50.766;4.474;2022-08-19T10:41:17;7.50;;;3.60;;
13897;SDS011;7019;50.766;4.474;2022-08-19T10:43:47;4.90;;;4.23;;
13897;SDS011;7019;50.766;4.474;2022-08-19T10:46:20;4.63;;;3.63;;
13897;SDS011;7019;50.766;4.474;2022-08-19T10:48:51;7.07;;;3.80;;
13897;SDS011;7019;50.766;4.474;2022-08-19T10:51:21;4.73;;;3.37;;
13897;SDS011;7019;50.766;4.474;2022-08-19T10:54:05;5.10;;;3.90;;
13897;SDS011;7019;50.766;4.474;2022-08-19T10:56:33;6.07;;;4.20;;
13897;SDS011;7019;50.766;4.474;2022-08-19T10:59:19;4.33;;;3.90;;
13897;SDS011;7019;50.766;4.474;2022-08-19T11:01:48;8.13;;;4.43;;
13897;SDS011;7019;50.766;4.474;2022-08-19T11:04:36;5.37;;;3.90;;
13897;SDS011;7019;50.766;4.474;2022-08-19T11:07:05;8.20;;;7.03;;
13897;SDS011;7019;50.766;4.474;2022-08-19T11:09:37;7.23;;;6.53;;
13897;SDS011;7019;50.766;4.474;2022-08-19T11:12:06;7.43;;;5.87;;
13897;SDS011;7019;50.766;4.474;2022-08-19T11:14:35;6.90;;;6.27;;
13897;SDS011;7019;50.766;4.474;2022-08-19T11:17:05;9.07;;;6.03;;
13897;SDS011;7019;50.766;4.474;2022-08-19T11:19:36;6.60;;;5.93;;
13897;SDS011;7019;50.766;4.474;2022-08-19T11:22:07;7.43;;;6.23;;
13897;SDS011;7019;50.766;4.474;2022-08-19T11:24:35;5.80;;;5.20;;
13897;SDS011;7019;50.766;4.474;2022-08-19T11:27:03;6.53;;;5.93;;
13897;SDS011;7019;50.766;4.474;2022-08-19T11:29:32;7.93;;;5.73;;
13897;SDS011;7019;50.766;4.474;2022-08-19T11:31:59;8.23;;;5.43;;
13897;SDS011;7019;50.766;4.474;2022-08-19T11:34:29;6.50;;;4.90;;
13897;SDS011;7019;50.766;4.474;2022-08-19T11:36:58;5.53;;;5.00;;
13897;SDS011;7019;50.766;4.474;2022-08-19T11:39:26;6.40;;;5.30;;
13897;SDS011;7019;50.766;4.474;2022-08-19T11:41:55;7.63;;;5.37;;
13897;SDS011;7019;50.766;4.474;2022-08-19T11:44:24;7.00;;;5.30;;
13897;SDS011;7019;50.766;4.474;2022-08-19T11:46:52;6.37;;;4.87;;
13897;SDS011;7019;50.766;4.474;2022-08-19T11:49:19;6.17;;;5.57;;
13897;SDS011;7019;50.766;4.474;2022-08-19T11:51:47;6.73;;;4.83;;
13897;SDS011;7019;50.766;4.474;2022-08-19T11:54:17;5.37;;;4.67;;
13897;SDS011;7019;50.766;4.474;2022-08-19T11:56:44;4.77;;;4.03;;
13897;SDS011;7019;50.766;4.474;2022-08-19T11:59:14;5.67;;;4.40;;
13897;SDS011;7019;50.766;4.474;2022-08-19T12:01:41;5.20;;;4.57;;
13897;SDS011;7019;50.766;4.474;2022-08-19T12:04:09;7.50;;;4.30;;
13897;SDS011;7019;50.766;4.474;2022-08-19T12:06:37;5.13;;;4.63;;
13897;SDS011;7019;50.766;4.474;2022-08-19T12:09:06;4.33;;;3.93;;
13897;SDS011;7019;50.766;4.474;2022-08-19T12:11:36;8.50;;;4.20;;
13897;SDS011;7019;50.766;4.474;2022-08-19T12:14:04;3.95;;;3.55;;
13897;SDS011;7019;50.766;4.474;2022-08-19T12:16:32;4.85;;;3.85;;
13897;SDS011;7019;50.766;4.474;2022-08-19T12:18:59;3.30;;;3.00;;
13897;SDS011;7019;50.766;4.474;2022-08-19T12:21:29;5.70;;;3.70;;
13897;SDS011;7019;50.766;4.474;2022-08-19T12:23:58;4.00;;;3.60;;
13897;SDS011;7019;50.766;4.474;2022-08-19T12:26:27;4.60;;;3.95;;
13897;SDS011;7019;50.766;4.474;2022-08-19T12:28:58;6.47;;;3.45;;
13897;SDS011;7019;50.766;4.474;2022-08-19T12:31:25;6.30;;;3.33;;
13897;SDS011;7019;50.766;4.474;2022-08-19T12:33:53;4.15;;;3.45;;
13897;SDS011;7019;50.766;4.474;2022-08-19T12:36:21;5.03;;;3.65;;
13897;SDS011;7019;50.766;4.474;2022-08-19T12:38:49;5.07;;;3.20;;
13897;SDS011;7019;50.766;4.474;2022-08-19T12:41:17;4.63;;;2.60;;
13897;SDS011;7019;50.766;4.474;2022-08-19T12:43:47;4.57;;;2.88;;
13897;SDS011;7019;50.766;4.474;2022-08-19T12:46:17;4.47;;;2.83;;
13897;SDS011;7019;50.766;4.474;2022-08-19T12:48:45;4.32;;;2.13;;
13897;SDS011;7019;50.766;4.474;2022-08-19T12:51:13;4.97;;;1.92;;
13897;SDS011;7019;50.766;4.474;2022-08-19T12:53:41;2.38;;;1.70;;
13897;SDS011;7019;50.766;4.474;2022-08-19T12:56:09;4.65;;;1.20;;
13897;SDS011;7019;50.766;4.474;2022-08-19T12:58:39;4.70;;;1.80;;
13897;SDS011;7019;50.766;4.474;2022-08-19T13:01:07;2.55;;;1.70;;
13897;SDS011;7019;50.766;4.474;2022-08-19T13:03:38;3.90;;;1.77;;
13897;SDS011;7019;50.766;4.474;2022-08-19T13:06:05;1.65;;;1.40;;
13897;SDS011;7019;50.766;4.474;2022-08-19T13:08:33;2.85;;;1.50;;
13897;SDS011;7019;50.766;4.474;2022-08-19T13:11:08;2.03;;;1.58;;
13897;SDS011;7019;50.766;4.474;2022-08-19T13:13:37;2.22;;;1.40;;
13897;SDS011;7019;50.766;4.474;2022-08-19T13:16:06;5.03;;;1.88;;
13897;SDS011;7019;50.766;4.474;2022-08-19T13:18:34;2.78;;;1.20;;
13897;SDS011;7019;50.766;4.474;2022-08-19T13:21:04;1.60;;;1.40;;
13897;SDS011;7019;50.766;4.474;2022-08-19T13:23:32;3.83;;;1.25;;
13897;SDS011;7019;50.766;4.474;2022-08-19T13:26:01;3.15;;;1.30;;
13897;SDS011;7019;50.766;4.474;2022-08-19T13:28:29;4.25;;;1.40;;
13897;SDS011;7019;50.766;4.474;2022-08-19T13:31:17;4.03;;;1.40;;
13897;SDS011;7019;50.766;4.474;2022-08-19T13:34:03;3.28;;;1.60;;
13897;SDS011;7019;50.766;4.474;2022-08-19T13:36:33;4.13;;;1.35;;
13897;SDS011;7019;50.766;4.474;2022-08-19T13:39:01;1.33;;;1.20;;
13897;SDS011;7019;50.766;4.474;2022-08-19T13:41:29;2.38;;;1.40;;
13897;SDS011;7019;50.766;4.474;2022-08-19T13:43:56;2.47;;;1.45;;
13897;SDS011;7019;50.766;4.474;2022-08-19T13:46:24;2.95;;;1.33;;
13897;SDS011;7019;50.766;4.474;2022-08-19T13:48:52;5.00;;;1.50;;
13897;SDS011;7019;50.766;4.474;2022-08-19T13:51:19;2.42;;;1.10;;
13897;SDS011;7019;50.766;4.474;2022-08-19T13:53:48;5.97;;;0.98;;
13897;SDS011;7019;50.766;4.474;2022-08-19T13:56:16;2.97;;;1.15;;
13897;SDS011;7019;50.766;4.474;2022-08-19T13:58:45;3.70;;;1.10;;
13897;SDS011;7019;50.766;4.474;2022-08-19T14:01:17;1.30;;;1.00;;
13897;SDS011;7019;50.766;4.474;2022-08-19T14:03:45;2.85;;;0.93;;
13897;SDS011;7019;50.766;4.474;2022-08-19T14:06:12;1.45;;;0.90;;
13897;SDS011;7019;50.766;4.474;2022-08-19T14:08:40;1.98;;;1.10;;
13897;SDS011;7019;50.766;4.474;2022-08-19T14:11:10;20.90;;;2.60;;
13897;SDS011;7019;50.766;4.474;2022-08-19T14:13:37;9.48;;;1.95;;
13897;SDS011;7019;50.766;4.474;2022-08-19T14:16:06;11.20;;;1.85;;
13897;SDS011;7019;50.766;4.474;2022-08-19T14:18:34;3.50;;;0.90;;
13897;SDS011;7019;50.766;4.474;2022-08-19T14:21:01;4.55;;;1.10;;
13897;SDS011;7019;50.766;4.474;2022-08-19T14:23:29;3.03;;;0.60;;
13897;SDS011;7019;50.766;4.474;2022-08-19T14:26:02;2.15;;;0.80;;
13897;SDS011;7019;50.766;4.474;2022-08-19T14:28:32;1.98;;;0.93;;
13897;SDS011;7019;50.766;4.474;2022-08-19T14:30:59;2.78;;;0.90;;
13897;SDS011;7019;50.766;4.474;2022-08-19T14:33:26;2.58;;;1.20;;
13897;SDS011;7019;50.766;4.474;2022-08-19T14:35:53;2.13;;;1.10;;
13897;SDS011;7019;50.766;4.474;2022-08-19T14:38:20;1.67;;;0.95;;
13897;SDS011;7019;50.766;4.474;2022-08-19T14:40:47;1.65;;;0.90;;
13897;SDS011;7019;50.766;4.474;2022-08-19T14:43:17;3.55;;;0.90;;
13897;SDS011;7019;50.766;4.474;2022-08-19T14:45:45;1.50;;;0.67;;
13897;SDS011;7019;50.766;4.474;2022-08-19T14:48:12;1.17;;;0.53;;
13897;SDS011;7019;50.766;4.474;2022-08-19T14:50:40;2.15;;;0.65;;
13897;SDS011;7019;50.766;4.474;2022-08-19T14:53:07;1.30;;;0.50;;
13897;SDS011;7019;50.766;4.474;2022-08-19T14:55:35;0.60;;;0.28;;
13897;SDS011;7019;50.766;4.474;2022-08-19T14:58:02;1.58;;;0.30;;
13897;SDS011;7019;50.766;4.474;2022-08-19T15:00:30;0.95;;;0.30;;
13897;SDS011;7019;50.766;4.474;2022-08-19T15:02:59;1.02;;;0.35;;
13897;SDS011;7019;50.766;4.474;2022-08-19T15:05:26;1.55;;;0.30;;
13897;SDS011;7019;50.766;4.474;2022-08-19T15:07:53;3.58;;;0.70;;